sensor_id;sensor_type;location;lat;lon;timestamp;pressure;altitude;pressure_sealevel;temperature;humidity
23363;BME280;11853;48.080;11.960;2023-07-09T00:01:41;95284.56;;;21.51;79.12
23363;BME280;11853;48.080;11.960;2023-07-09T00:04:11;95288.97;;;21.52;78.74
23363;BME280;11853;48.080;11.960;2023-07-09T00:06:37;95283.94;;;21.49;78.60
23363;BME280;11853;48.080;11.960;2023-07-09T00:09:04;95281.47;;;21.47;78.26
23363;BME280;11853;48.080;11.960;2023-07-09T00:11:30;95288.94;;;21.45;78.96
23363;BME280;11853;48.080;11.960;2023-07-09T00:13:56;95283.34;;;21.40;79.15
23363;BME280;11853;48.080;11.960;2023-07-09T00:16:24;95292.47;;;21.39;79.57
23363;BME280;11853;48.080;11.960;2023-07-09T00:18:51;95294.34;;;21.39;79.79
23363;BME280;11853;48.080;11.960;2023-07-09T00:21:21;95283.94;;;21.35;80.22
23363;BME280;11853;48.080;11.960;2023-07-09T00:23:46;95284.97;;;21.34;79.50
23363;BME280;11853;48.080;11.960;2023-07-09T00:26:16;95286.44;;;21.30;79.38
23363;BME280;11853;48.080;11.960;2023-07-09T00:28:42;95289.53;;;21.34;78.73
23363;BME280;11853;48.080;11.960;2023-07-09T00:31:13;95289.78;;;21.32;78.96
23363;BME280;11853;48.080;11.960;2023-07-09T00:33:40;95296.59;;;21.28;79.65
23363;BME280;11853;48.080;11.960;2023-07-09T00:36:29;95297.84;;;21.26;80.10
23363;BME280;11853;48.080;11.960;2023-07-09T00:38:58;95294.34;;;21.19;80.53
23363;BME280;11853;48.080;11.960;2023-07-09T00:41:33;95297.84;;;21.19;81.04
23363;BME280;11853;48.080;11.960;2023-07-09T00:49:29;95298.06;;;21.11;81.12
23363;BME280;11853;48.080;11.960;2023-07-09T00:51:59;95303.88;;;21.08;82.12
23363;BME280;11853;48.080;11.960;2023-07-09T00:54:36;95314.25;;;21.04;82.49
23363;BME280;11853;48.080;11.960;2023-07-09T00:57:14;95309.28;;;21.01;82.98
23363;BME280;11853;48.080;11.960;2023-07-09T00:59:45;95307.19;;;20.97;83.52
23363;BME280;11853;48.080;11.960;2023-07-09T01:02:13;95304.91;;;20.93;84.11
23363;BME280;11853;48.080;11.960;2023-07-09T01:04:40;95311.34;;;20.92;84.50
23363;BME280;11853;48.080;11.960;2023-07-09T01:07:05;95307.59;;;20.93;83.17
23363;BME280;11853;48.080;11.960;2023-07-09T01:09:32;95295.56;;;20.96;82.89
23363;BME280;11853;48.080;11.960;2023-07-09T01:12:04;95310.69;;;20.90;82.40
23363;BME280;11853;48.080;11.960;2023-07-09T01:14:32;95307.81;;;20.92;82.75
23363;BME280;11853;48.080;11.960;2023-07-09T01:17:06;95313.81;;;20.94;83.87
23363;BME280;11853;48.080;11.960;2023-07-09T01:19:40;95309.28;;;20.95;84.54
23363;BME280;11853;48.080;11.960;2023-07-09T01:22:12;95312.56;;;20.90;85.03
23363;BME280;11853;48.080;11.960;2023-07-09T01:24:54;95321.50;;;20.84;85.72
23363;BME280;11853;48.080;11.960;2023-07-09T01:27:26;95319.63;;;20.78;86.46
23363;BME280;11853;48.080;11.960;2023-07-09T01:29:54;95312.13;;;20.73;87.04
23363;BME280;11853;48.080;11.960;2023-07-09T01:32:21;95312.94;;;20.67;87.00
23363;BME280;11853;48.080;11.960;2023-07-09T01:34:49;95311.50;;;20.64;87.76
23363;BME280;11853;48.080;11.960;2023-07-09T01:37:21;95312.94;;;20.67;87.87
23363;BME280;11853;48.080;11.960;2023-07-09T01:39:48;95318.34;;;20.67;87.83
23363;BME280;11853;48.080;11.960;2023-07-09T01:42:15;95315.84;;;20.65;87.87
23363;BME280;11853;48.080;11.960;2023-07-09T01:44:43;95315.22;;;20.63;88.18
23363;BME280;11853;48.080;11.960;2023-07-09T01:47:08;95317.28;;;20.61;88.37
23363;BME280;11853;48.080;11.960;2023-07-09T01:49:34;95317.47;;;20.60;88.69
23363;BME280;11853;48.080;11.960;2023-07-09T01:52:01;95313.31;;;20.57;88.63
23363;BME280;11853;48.080;11.960;2023-07-09T01:54:31;95317.47;;;20.53;88.74
23363;BME280;11853;48.080;11.960;2023-07-09T01:57:17;95321.19;;;20.52;89.62
23363;BME280;11853;48.080;11.960;2023-07-09T01:59:51;95315.75;;;20.45;89.57
23363;BME280;11853;48.080;11.960;2023-07-09T02:02:19;95322.38;;;20.43;89.91
23363;BME280;11853;48.080;11.960;2023-07-09T02:04:53;95318.84;;;20.42;89.60
23363;BME280;11853;48.080;11.960;2023-07-09T02:07:20;95324.47;;;20.41;89.70
23363;BME280;11853;48.080;11.960;2023-07-09T02:09:45;95324.00;;;20.37;90.16
23363;BME280;11853;48.080;11.960;2023-07-09T02:12:12;95328.97;;;20.34;90.41
23363;BME280;11853;48.080;11.960;2023-07-09T02:14:39;95322.75;;;20.27;90.52
23363;BME280;11853;48.080;11.960;2023-07-09T02:17:06;95328.31;;;20.25;90.08
23363;BME280;11853;48.080;11.960;2023-07-09T02:19:32;95327.69;;;20.23;90.27
23363;BME280;11853;48.080;11.960;2023-07-09T02:21:58;95327.69;;;20.23;89.14
23363;BME280;11853;48.080;11.960;2023-07-09T02:24:24;95337.69;;;20.29;89.05
23363;BME280;11853;48.080;11.960;2023-07-09T02:26:51;95336.00;;;20.28;89.54
23363;BME280;11853;48.080;11.960;2023-07-09T02:29:17;95334.34;;;20.27;89.27
23363;BME280;11853;48.080;11.960;2023-07-09T02:31:44;95333.13;;;20.30;88.65
23363;BME280;11853;48.080;11.960;2023-07-09T02:34:09;95340.56;;;20.28;88.40
23363;BME280;11853;48.080;11.960;2023-07-09T02:36:35;95342.22;;;20.29;88.56
23363;BME280;11853;48.080;11.960;2023-07-09T02:39:01;95337.69;;;20.29;88.44
23363;BME280;11853;48.080;11.960;2023-07-09T02:41:26;95336.41;;;20.25;88.38
23363;BME280;11853;48.080;11.960;2023-07-09T02:43:52;95338.91;;;20.27;88.41
23363;BME280;11853;48.080;11.960;2023-07-09T02:46:18;95338.09;;;20.26;88.36
23363;BME280;11853;48.080;11.960;2023-07-09T02:48:43;95348.00;;;20.25;88.29
23363;BME280;11853;48.080;11.960;2023-07-09T02:51:09;95344.72;;;20.30;88.13
23363;BME280;11853;48.080;11.960;2023-07-09T02:53:34;95344.72;;;20.30;88.01
23363;BME280;11853;48.080;11.960;2023-07-09T02:56:00;95341.59;;;20.27;87.98
23363;BME280;11853;48.080;11.960;2023-07-09T02:58:26;95345.94;;;20.28;87.86
23363;BME280;11853;48.080;11.960;2023-07-09T03:00:51;95343.47;;;20.26;87.39
23363;BME280;11853;48.080;11.960;2023-07-09T03:03:19;95347.19;;;20.25;88.00
23363;BME280;11853;48.080;11.960;2023-07-09T03:05:48;95352.56;;;20.25;88.38
23363;BME280;11853;48.080;11.960;2023-07-09T03:08:14;95345.94;;;20.21;88.72
23363;BME280;11853;48.080;11.960;2023-07-09T03:10:42;95343.44;;;20.19;88.62
23363;BME280;11853;48.080;11.960;2023-07-09T03:13:08;95347.34;;;20.17;88.70
23363;BME280;11853;48.080;11.960;2023-07-09T03:15:33;95343.81;;;20.16;88.53
23363;BME280;11853;48.080;11.960;2023-07-09T03:17:59;95349.44;;;20.15;88.68
23363;BME280;11853;48.080;11.960;2023-07-09T03:20:25;95352.13;;;20.15;89.19
23363;BME280;11853;48.080;11.960;2023-07-09T03:22:50;95354.38;;;20.11;89.35
23363;BME280;11853;48.080;11.960;2023-07-09T03:25:16;95350.84;;;20.11;89.34
23363;BME280;11853;48.080;11.960;2023-07-09T03:27:42;95348.94;;;20.05;89.59
23363;BME280;11853;48.080;11.960;2023-07-09T03:30:08;95357.63;;;20.00;90.00
23363;BME280;11853;48.080;11.960;2023-07-09T03:32:33;95352.84;;;19.95;90.16
23363;BME280;11853;48.080;11.960;2023-07-09T03:34:59;95351.16;;;19.94;90.74
23363;BME280;11853;48.080;11.960;2023-07-09T03:37:25;95357.19;;;19.96;90.57
23363;BME280;11853;48.080;11.960;2023-07-09T03:39:50;95355.53;;;19.95;90.51
23363;BME280;11853;48.080;11.960;2023-07-09T03:42:16;95364.63;;;19.94;90.31
23363;BME280;11853;48.080;11.960;2023-07-09T03:44:42;95364.63;;;19.94;90.15
23363;BME280;11853;48.080;11.960;2023-07-09T03:47:07;95369.19;;;19.94;90.49
23363;BME280;11853;48.080;11.960;2023-07-09T03:49:33;95362.97;;;19.93;90.21
23363;BME280;11853;48.080;11.960;2023-07-09T03:51:59;95367.31;;;19.94;90.52
23363;BME280;11853;48.080;11.960;2023-07-09T03:54:25;95362.78;;;19.95;91.24
23363;BME280;11853;48.080;11.960;2023-07-09T03:56:50;95366.94;;;19.97;90.50
23363;BME280;11853;48.080;11.960;2023-07-09T03:59:16;95367.31;;;19.94;90.87
23363;BME280;11853;48.080;11.960;2023-07-09T04:01:41;95364.03;;;19.99;90.41
23363;BME280;11853;48.080;11.960;2023-07-09T04:04:12;95367.16;;;20.02;90.38
23363;BME280;11853;48.080;11.960;2023-07-09T04:06:38;95363.66;;;20.02;91.15
23363;BME280;11853;48.080;11.960;2023-07-09T04:09:04;95370.50;;;20.05;90.90
23363;BME280;11853;48.080;11.960;2023-07-09T04:11:30;95364.28;;;20.04;91.25
23363;BME280;11853;48.080;11.960;2023-07-09T04:13:55;95365.13;;;20.05;91.23
23363;BME280;11853;48.080;11.960;2023-07-09T04:16:21;95363.31;;;20.12;91.49
23363;BME280;11853;48.080;11.960;2023-07-09T04:18:47;95369.13;;;20.15;91.52
23363;BME280;11853;48.080;11.960;2023-07-09T04:21:13;95368.28;;;20.15;92.13
23363;BME280;11853;48.080;11.960;2023-07-09T04:23:38;95375.97;;;20.18;91.81
23363;BME280;11853;48.080;11.960;2023-07-09T04:26:04;95379.91;;;20.22;92.42
23363;BME280;11853;48.080;11.960;2023-07-09T04:28:34;95379.53;;;20.25;92.72
23363;BME280;11853;48.080;11.960;2023-07-09T04:31:00;95381.81;;;20.28;92.31
23363;BME280;11853;48.080;11.960;2023-07-09T04:33:26;95382.06;;;20.33;92.13
23363;BME280;11853;48.080;11.960;2023-07-09T04:35:51;95383.31;;;20.37;91.93
23363;BME280;11853;48.080;11.960;2023-07-09T04:38:17;95385.22;;;20.43;92.09
23363;BME280;11853;48.080;11.960;2023-07-09T04:40:43;95388.53;;;20.45;91.77
23363;BME280;11853;48.080;11.960;2023-07-09T04:43:09;95388.13;;;20.48;91.24
23363;BME280;11853;48.080;11.960;2023-07-09T04:45:35;95384.69;;;20.55;90.88
23363;BME280;11853;48.080;11.960;2023-07-09T04:48:01;95383.88;;;20.61;91.38
23363;BME280;11853;48.080;11.960;2023-07-09T04:50:26;95388.47;;;20.67;91.52
23363;BME280;11853;48.080;11.960;2023-07-09T04:52:52;95389.50;;;20.73;90.70
23363;BME280;11853;48.080;11.960;2023-07-09T04:55:18;95378.97;;;20.78;90.46
23363;BME280;11853;48.080;11.960;2023-07-09T04:57:45;95385.59;;;20.82;90.84
23363;BME280;11853;48.080;11.960;2023-07-09T05:00:11;95381.88;;;20.89;90.26
23363;BME280;11853;48.080;11.960;2023-07-09T05:02:37;95390.59;;;20.91;89.57
23363;BME280;11853;48.080;11.960;2023-07-09T05:05:03;95387.09;;;20.98;88.92
23363;BME280;11853;48.080;11.960;2023-07-09T05:07:28;95390.00;;;21.03;88.86
23363;BME280;11853;48.080;11.960;2023-07-09T05:09:54;95385.66;;;21.08;89.53
23363;BME280;11853;48.080;11.960;2023-07-09T05:12:20;95387.75;;;21.13;89.03
23363;BME280;11853;48.080;11.960;2023-07-09T05:14:46;95380.88;;;21.17;88.48
23363;BME280;11853;48.080;11.960;2023-07-09T05:17:12;95390.91;;;21.23;87.18
23363;BME280;11853;48.080;11.960;2023-07-09T05:19:38;95392.34;;;21.32;85.68
23363;BME280;11853;48.080;11.960;2023-07-09T05:22:04;95398.34;;;21.34;84.92
23363;BME280;11853;48.080;11.960;2023-07-09T05:24:30;95392.38;;;21.39;84.08
23363;BME280;11853;48.080;11.960;2023-07-09T05:26:55;95403.19;;;21.46;83.15
23363;BME280;11853;48.080;11.960;2023-07-09T05:29:22;95407.56;;;21.53;82.63
23363;BME280;11853;48.080;11.960;2023-07-09T05:31:47;95403.19;;;21.59;82.31
23363;BME280;11853;48.080;11.960;2023-07-09T05:34:13;95399.66;;;21.65;81.88
23363;BME280;11853;48.080;11.960;2023-07-09T05:36:39;95404.84;;;21.73;81.95
23363;BME280;11853;48.080;11.960;2023-07-09T05:39:05;95405.88;;;21.86;81.16
23363;BME280;11853;48.080;11.960;2023-07-09T05:41:30;95401.50;;;21.91;79.71
23363;BME280;11853;48.080;11.960;2023-07-09T05:43:59;95409.00;;;21.96;79.69
23363;BME280;11853;48.080;11.960;2023-07-09T05:46:24;95399.00;;;22.03;79.76
23363;BME280;11853;48.080;11.960;2023-07-09T05:48:50;95411.47;;;22.17;79.47
23363;BME280;11853;48.080;11.960;2023-07-09T05:51:16;95408.34;;;22.14;78.24
23363;BME280;11853;48.080;11.960;2023-07-09T05:53:42;95401.91;;;22.21;77.66
23363;BME280;11853;48.080;11.960;2023-07-09T05:56:08;95413.09;;;22.32;77.99
23363;BME280;11853;48.080;11.960;2023-07-09T05:58:34;95410.41;;;22.38;77.98
23363;BME280;11853;48.080;11.960;2023-07-09T06:00:59;95415.59;;;22.40;75.90
23363;BME280;11853;48.080;11.960;2023-07-09T06:03:26;95421.44;;;22.37;76.30
23363;BME280;11853;48.080;11.960;2023-07-09T06:05:53;95420.16;;;22.39;75.96
23363;BME280;11853;48.080;11.960;2023-07-09T06:08:20;95426.59;;;22.45;76.39
23363;BME280;11853;48.080;11.960;2023-07-09T06:10:55;95418.47;;;22.52;77.20
23363;BME280;11853;48.080;11.960;2023-07-09T06:13:22;95424.91;;;22.57;77.66
23363;BME280;11853;48.080;11.960;2023-07-09T06:15:48;95425.91;;;22.69;77.75
23363;BME280;11853;48.080;11.960;2023-07-09T06:18:14;95422.53;;;22.81;77.09
23363;BME280;11853;48.080;11.960;2023-07-09T06:20:48;95427.69;;;22.89;77.50
23363;BME280;11853;48.080;11.960;2023-07-09T06:23:14;95429.59;;;22.95;77.39
23363;BME280;11853;48.080;11.960;2023-07-09T06:25:40;95427.03;;;23.00;77.92
23363;BME280;11853;48.080;11.960;2023-07-09T06:28:06;95420.38;;;23.03;77.12
23363;BME280;11853;48.080;11.960;2023-07-09T06:30:31;95423.50;;;23.00;76.72
23363;BME280;11853;48.080;11.960;2023-07-09T06:32:57;95423.69;;;23.05;77.24
23363;BME280;11853;48.080;11.960;2023-07-09T06:35:23;95424.47;;;23.19;78.25
23363;BME280;11853;48.080;11.960;2023-07-09T06:37:48;95426.91;;;23.27;77.49
23363;BME280;11853;48.080;11.960;2023-07-09T06:40:14;95417.25;;;23.37;78.08
23363;BME280;11853;48.080;11.960;2023-07-09T06:42:40;95422.59;;;23.51;77.25
23363;BME280;11853;48.080;11.960;2023-07-09T06:45:06;95425.03;;;23.59;76.31
23363;BME280;11853;48.080;11.960;2023-07-09T06:47:31;95434.97;;;23.72;76.07
23363;BME280;11853;48.080;11.960;2023-07-09T06:49:57;95421.53;;;23.83;75.32
23363;BME280;11853;48.080;11.960;2023-07-09T06:52:23;95435.16;;;24.02;73.91
23363;BME280;11853;48.080;11.960;2023-07-09T06:54:48;95436.31;;;24.13;74.47
23363;BME280;11853;48.080;11.960;2023-07-09T06:57:15;95437.88;;;24.20;72.52
23363;BME280;11853;48.080;11.960;2023-07-09T06:59:40;95427.44;;;24.24;72.62
23363;BME280;11853;48.080;11.960;2023-07-09T07:02:07;95439.94;;;24.25;71.93
23363;BME280;11853;48.080;11.960;2023-07-09T07:04:33;95437.41;;;24.30;72.33
23363;BME280;11853;48.080;11.960;2023-07-09T07:06:58;95435.22;;;24.39;72.42
23363;BME280;11853;48.080;11.960;2023-07-09T07:09:24;95427.41;;;24.49;72.65
23363;BME280;11853;48.080;11.960;2023-07-09T07:11:50;95428.53;;;24.60;72.48
23363;BME280;11853;48.080;11.960;2023-07-09T07:14:16;95427.34;;;24.74;72.43
23363;BME280;11853;48.080;11.960;2023-07-09T07:16:41;95424.06;;;24.84;70.04
23363;BME280;11853;48.080;11.960;2023-07-09T07:19:07;95428.38;;;24.91;69.44
23363;BME280;11853;48.080;11.960;2023-07-09T07:21:33;95424.53;;;24.99;70.24
23363;BME280;11853;48.080;11.960;2023-07-09T07:23:58;95421.50;;;25.07;68.13
23363;BME280;11853;48.080;11.960;2023-07-09T07:26:24;95431.44;;;25.13;68.42
23363;BME280;11853;48.080;11.960;2023-07-09T07:28:50;95430.91;;;25.23;68.51
23363;BME280;11853;48.080;11.960;2023-07-09T07:31:16;95421.84;;;25.29;67.63
23363;BME280;11853;48.080;11.960;2023-07-09T07:33:42;95418.31;;;25.29;65.95
23363;BME280;11853;48.080;11.960;2023-07-09T07:36:09;95420.34;;;25.33;66.75
23363;BME280;11853;48.080;11.960;2023-07-09T07:38:35;95424.38;;;25.43;67.69
23363;BME280;11853;48.080;11.960;2023-07-09T07:41:01;95422.53;;;25.55;68.33
23363;BME280;11853;48.080;11.960;2023-07-09T07:43:28;95423.88;;;25.64;67.69
23363;BME280;11853;48.080;11.960;2023-07-09T07:45:54;95421.41;;;25.74;67.41
23363;BME280;11853;48.080;11.960;2023-07-09T07:48:19;95421.69;;;25.84;67.57
23363;BME280;11853;48.080;11.960;2023-07-09T07:50:46;95423.00;;;25.94;67.25
23363;BME280;11853;48.080;11.960;2023-07-09T07:53:14;95416.16;;;26.03;67.11
23363;BME280;11853;48.080;11.960;2023-07-09T07:55:41;95414.72;;;26.12;67.54
23363;BME280;11853;48.080;11.960;2023-07-09T07:58:13;95412.25;;;26.22;66.31
23363;BME280;11853;48.080;11.960;2023-07-09T08:00:39;95412.50;;;26.33;65.83
23363;BME280;11853;48.080;11.960;2023-07-09T08:03:05;95411.53;;;26.39;65.21
23363;BME280;11853;48.080;11.960;2023-07-09T08:05:31;95402.09;;;26.41;63.82
23363;BME280;11853;48.080;11.960;2023-07-09T08:07:57;95403.03;;;26.47;62.46
23363;BME280;11853;48.080;11.960;2023-07-09T08:10:23;95407.53;;;26.53;62.09
23363;BME280;11853;48.080;11.960;2023-07-09T08:12:48;95405.50;;;26.60;60.69
23363;BME280;11853;48.080;11.960;2023-07-09T08:15:14;95406.91;;;26.63;57.84
23363;BME280;11853;48.080;11.960;2023-07-09T08:17:40;95412.72;;;26.66;57.78
23363;BME280;11853;48.080;11.960;2023-07-09T08:20:06;95411.19;;;26.70;56.27
23363;BME280;11853;48.080;11.960;2023-07-09T08:22:32;95411.75;;;26.72;56.75
23363;BME280;11853;48.080;11.960;2023-07-09T08:24:57;95411.28;;;26.76;53.17
23363;BME280;11853;48.080;11.960;2023-07-09T08:27:23;95414.59;;;26.78;53.72
23363;BME280;11853;48.080;11.960;2023-07-09T08:29:49;95409.84;;;26.85;55.11
23363;BME280;11853;48.080;11.960;2023-07-09T08:32:15;95412.69;;;26.90;54.05
23363;BME280;11853;48.080;11.960;2023-07-09T08:34:41;95408.38;;;26.94;54.05
23363;BME280;11853;48.080;11.960;2023-07-09T08:37:08;95415.38;;;27.02;48.61
23363;BME280;11853;48.080;11.960;2023-07-09T08:39:34;95413.69;;;27.01;46.84
23363;BME280;11853;48.080;11.960;2023-07-09T08:42:08;95414.88;;;27.05;49.21
23363;BME280;11853;48.080;11.960;2023-07-09T08:52:40;95408.44;;;27.51;48.55
23363;BME280;11853;48.080;11.960;2023-07-09T08:55:11;95396.44;;;27.52;44.79
23363;BME280;11853;48.080;11.960;2023-07-09T08:57:40;95403.63;;;27.58;42.79
23363;BME280;11853;48.080;11.960;2023-07-09T09:00:14;95399.34;;;27.62;42.55
23363;BME280;11853;48.080;11.960;2023-07-09T09:02:48;95398.66;;;27.55;45.55
23363;BME280;11853;48.080;11.960;2023-07-09T09:05:19;95402.25;;;27.73;44.13
23363;BME280;11853;48.080;11.960;2023-07-09T09:07:56;95409.22;;;27.80;43.80
23363;BME280;11853;48.080;11.960;2023-07-09T09:10:33;95401.06;;;27.80;43.75
23363;BME280;11853;48.080;11.960;2023-07-09T09:13:15;95398.69;;;27.72;45.12
23363;BME280;11853;48.080;11.960;2023-07-09T09:15:44;95406.91;;;27.89;45.32
23363;BME280;11853;48.080;11.960;2023-07-09T09:18:22;95409.25;;;27.97;46.28
23363;BME280;11853;48.080;11.960;2023-07-09T09:21:31;95403.88;;;28.02;45.19
23363;BME280;11853;48.080;11.960;2023-07-09T09:24:10;95408.16;;;27.98;47.17
23363;BME280;11853;48.080;11.960;2023-07-09T09:26:38;95408.16;;;27.98;46.11
23363;BME280;11853;48.080;11.960;2023-07-09T09:29:15;95404.69;;;28.03;45.23
23363;BME280;11853;48.080;11.960;2023-07-09T09:31:44;95402.28;;;28.06;45.01
23363;BME280;11853;48.080;11.960;2023-07-09T09:34:20;95406.94;;;28.06;44.89
23363;BME280;11853;48.080;11.960;2023-07-09T09:36:46;95408.00;;;28.05;46.12
23363;BME280;11853;48.080;11.960;2023-07-09T09:39:12;95401.56;;;28.11;46.15
23363;BME280;11853;48.080;11.960;2023-07-09T09:41:38;95408.16;;;28.15;44.20
23363;BME280;11853;48.080;11.960;2023-07-09T09:44:05;95404.50;;;28.10;43.42
23363;BME280;11853;48.080;11.960;2023-07-09T09:46:32;95405.09;;;28.12;44.23
23363;BME280;11853;48.080;11.960;2023-07-09T09:49:02;95412.88;;;28.20;43.88
23363;BME280;11853;48.080;11.960;2023-07-09T09:51:33;95409.47;;;28.29;46.13
23363;BME280;11853;48.080;11.960;2023-07-09T09:54:01;95404.34;;;28.33;42.36
23363;BME280;11853;48.080;11.960;2023-07-09T09:56:35;95401.63;;;28.33;41.39
23363;BME280;11853;48.080;11.960;2023-07-09T09:59:02;95405.09;;;28.28;41.98
23363;BME280;11853;48.080;11.960;2023-07-09T10:01:35;95402.19;;;28.35;43.99
23363;BME280;11853;48.080;11.960;2023-07-09T10:04:04;95403.44;;;28.44;44.81
23363;BME280;11853;48.080;11.960;2023-07-09T10:06:38;95401.66;;;28.55;45.59
23363;BME280;11853;48.080;11.960;2023-07-09T10:11:53;95401.03;;;28.70;42.66
23363;BME280;11853;48.080;11.960;2023-07-09T10:14:32;95393.19;;;28.73;42.31
23363;BME280;11853;48.080;11.960;2023-07-09T10:17:05;95397.06;;;28.78;43.52
23363;BME280;11853;48.080;11.960;2023-07-09T10:19:49;95403.69;;;28.82;44.34
23363;BME280;11853;48.080;11.960;2023-07-09T10:22:28;95404.22;;;28.84;40.69
23363;BME280;11853;48.080;11.960;2023-07-09T10:25:19;95398.78;;;28.84;41.70
23363;BME280;11853;48.080;11.960;2023-07-09T10:34:16;95398.25;;;28.87;41.98
23363;BME280;11853;48.080;11.960;2023-07-09T10:37:04;95394.97;;;28.85;41.93
23363;BME280;11853;48.080;11.960;2023-07-09T10:39:36;95395.50;;;28.82;41.03
23363;BME280;11853;48.080;11.960;2023-07-09T10:42:03;95391.00;;;28.75;41.65
23363;BME280;11853;48.080;11.960;2023-07-09T10:44:33;95399.72;;;28.94;40.87
23363;BME280;11853;48.080;11.960;2023-07-09T10:47:07;95400.63;;;29.00;39.25
23363;BME280;11853;48.080;11.960;2023-07-09T10:49:38;95408.75;;;28.95;39.25
23363;BME280;11853;48.080;11.960;2023-07-09T10:52:29;95399.94;;;28.88;41.04
23363;BME280;11853;48.080;11.960;2023-07-09T11:00:21;95401.94;;;28.97;40.58
23363;BME280;11853;48.080;11.960;2023-07-09T11:03:05;95405.19;;;28.94;40.43
23363;BME280;11853;48.080;11.960;2023-07-09T11:05:37;95400.25;;;28.91;41.01
23363;BME280;11853;48.080;11.960;2023-07-09T11:08:11;95398.59;;;28.90;41.13
23363;BME280;11853;48.080;11.960;2023-07-09T11:13:33;95394.25;;;28.94;41.03
23363;BME280;11853;48.080;11.960;2023-07-09T11:16:02;95392.94;;;28.97;40.13
23363;BME280;11853;48.080;11.960;2023-07-09T11:18:32;95385.81;;;28.96;41.78
23363;BME280;11853;48.080;11.960;2023-07-09T11:21:15;95382.31;;;29.01;41.17
23363;BME280;11853;48.080;11.960;2023-07-09T11:23:50;95386.69;;;29.24;40.20
23363;BME280;11853;48.080;11.960;2023-07-09T11:26:24;95381.13;;;29.40;39.44
23363;BME280;11853;48.080;11.960;2023-07-09T11:31:39;95380.09;;;29.47;38.68
23363;BME280;11853;48.080;11.960;2023-07-09T11:36:59;95390.19;;;29.68;38.66
23363;BME280;11853;48.080;11.960;2023-07-09T11:39:42;95388.75;;;29.93;37.58
23363;BME280;11853;48.080;11.960;2023-07-09T11:45:26;95391.06;;;29.74;38.15
23363;BME280;11853;48.080;11.960;2023-07-09T11:47:59;95384.00;;;29.56;37.95
23363;BME280;11853;48.080;11.960;2023-07-09T11:50:34;95385.16;;;29.60;39.18
23363;BME280;11853;48.080;11.960;2023-07-09T11:53:20;95376.91;;;29.55;37.66
23363;BME280;11853;48.080;11.960;2023-07-09T11:55:49;95366.38;;;29.41;36.87
23363;BME280;11853;48.080;11.960;2023-07-09T11:58:17;95364.94;;;29.34;38.36
23363;BME280;11853;48.080;11.960;2023-07-09T12:00:51;95366.81;;;29.28;38.69
23363;BME280;11853;48.080;11.960;2023-07-09T12:03:25;95362.16;;;29.29;38.17
23363;BME280;11853;48.080;11.960;2023-07-09T12:06:03;95360.31;;;29.34;37.58
23363;BME280;11853;48.080;11.960;2023-07-09T12:08:41;95360.44;;;29.50;38.45
23363;BME280;11853;48.080;11.960;2023-07-09T12:11:19;95361.13;;;29.62;37.38
23363;BME280;11853;48.080;11.960;2023-07-09T12:13:45;95353.38;;;29.54;38.48
23363;BME280;11853;48.080;11.960;2023-07-09T12:16:35;95350.50;;;29.66;37.42
23363;BME280;11853;48.080;11.960;2023-07-09T12:19:01;95350.19;;;29.62;38.36
23363;BME280;11853;48.080;11.960;2023-07-09T12:21:27;95343.66;;;29.63;36.83
23363;BME280;11853;48.080;11.960;2023-07-09T12:23:54;95343.84;;;29.56;36.41
23363;BME280;11853;48.080;11.960;2023-07-09T12:26:21;95341.34;;;29.55;37.26
23363;BME280;11853;48.080;11.960;2023-07-09T12:28:54;95335.09;;;29.59;36.43
23363;BME280;11853;48.080;11.960;2023-07-09T12:31:30;95333.75;;;29.62;37.56
23363;BME280;11853;48.080;11.960;2023-07-09T12:33:58;95337.84;;;29.59;36.59
23363;BME280;11853;48.080;11.960;2023-07-09T12:36:25;95333.44;;;29.58;36.76
23363;BME280;11853;48.080;11.960;2023-07-09T12:38:55;95333.00;;;29.67;36.04
23363;BME280;11853;48.080;11.960;2023-07-09T12:41:43;95331.06;;;29.67;35.51
23363;BME280;11853;48.080;11.960;2023-07-09T12:44:19;95319.50;;;29.60;36.61
23363;BME280;11853;48.080;11.960;2023-07-09T12:46:47;95322.81;;;29.62;35.78
23363;BME280;11853;48.080;11.960;2023-07-09T12:49:27;95314.56;;;29.57;36.20
23363;BME280;11853;48.080;11.960;2023-07-09T12:51:57;95313.41;;;29.53;37.16
23363;BME280;11853;48.080;11.960;2023-07-09T12:54:23;95312.91;;;29.56;38.26
23363;BME280;11853;48.080;11.960;2023-07-09T12:56:53;95313.22;;;29.92;36.72
23363;BME280;11853;48.080;11.960;2023-07-09T13:02:02;95305.81;;;29.92;36.82
23363;BME280;11853;48.080;11.960;2023-07-09T13:04:34;95310.63;;;29.75;38.30
23363;BME280;11853;48.080;11.960;2023-07-09T13:07:01;95305.91;;;29.65;38.52
23363;BME280;11853;48.080;11.960;2023-07-09T13:09:28;95300.94;;;29.62;38.52
23363;BME280;11853;48.080;11.960;2023-07-09T13:11:55;95306.41;;;29.62;38.40
23363;BME280;11853;48.080;11.960;2023-07-09T13:14:26;95302.41;;;29.75;38.82
23363;BME280;11853;48.080;11.960;2023-07-09T13:16:52;95301.13;;;29.82;37.42
23363;BME280;11853;48.080;11.960;2023-07-09T13:19:18;95300.66;;;29.96;36.74
23363;BME280;11853;48.080;11.960;2023-07-09T13:21:45;95286.41;;;29.94;35.34
23363;BME280;11853;48.080;11.960;2023-07-09T13:24:30;95290.63;;;30.12;35.24
23363;BME280;11853;48.080;11.960;2023-07-09T13:26:59;95296.97;;;30.17;34.88
23363;BME280;11853;48.080;11.960;2023-07-09T13:29:26;95295.69;;;29.93;35.54
23363;BME280;11853;48.080;11.960;2023-07-09T13:31:53;95293.69;;;29.78;36.83
23363;BME280;11853;48.080;11.960;2023-07-09T13:34:27;95294.31;;;29.90;35.76
23363;BME280;11853;48.080;11.960;2023-07-09T13:36:54;95293.91;;;30.08;34.08
23363;BME280;11853;48.080;11.960;2023-07-09T13:39:22;95291.84;;;30.26;33.30
23363;BME280;11853;48.080;11.960;2023-07-09T13:41:50;95294.22;;;30.17;34.07